sensor_id;sensor_type;location;lat;lon;timestamp;pressure;altitude;pressure_sealevel;temperature;humidity
23363;BME280;11853;48.080;11.960;2024-01-10T00:01:34;95398.50;;;-1.93;80.23
23363;BME280;11853;48.080;11.960;2024-01-10T00:04:00;95404.75;;;-1.97;80.99
23363;BME280;11853;48.080;11.960;2024-01-10T00:06:26;95397.78;;;-1.97;80.80
23363;BME280;11853;48.080;11.960;2024-01-10T00:08:52;95395.94;;;-1.95;80.90
23363;BME280;11853;48.080;11.960;2024-01-10T00:11:18;95387.66;;;-2.03;80.78
23363;BME280;11853;48.080;11.960;2024-01-10T00:13:43;95398.09;;;-2.05;81.36
23363;BME280;11853;48.080;11.960;2024-01-10T00:16:11;95394.53;;;-2.02;81.52
23363;BME280;11853;48.080;11.960;2024-01-10T00:18:38;95399.59;;;-1.99;81.82
23363;BME280;11853;48.080;11.960;2024-01-10T00:21:06;95394.34;;;-1.97;81.17
23363;BME280;11853;48.080;11.960;2024-01-10T00:23:32;95396.81;;;-1.94;80.94
23363;BME280;11853;48.080;11.960;2024-01-10T00:25:57;95396.72;;;-1.93;81.01
23363;BME280;11853;48.080;11.960;2024-01-10T00:28:23;95380.34;;;-1.95;80.87
23363;BME280;11853;48.080;11.960;2024-01-10T00:30:49;95398.63;;;-1.96;80.78
23363;BME280;11853;48.080;11.960;2024-01-10T00:33:15;95396.81;;;-1.94;81.06
23363;BME280;11853;48.080;11.960;2024-01-10T00:35:40;95400.31;;;-1.95;80.55
23363;BME280;11853;48.080;11.960;2024-01-10T00:38:06;95397.84;;;-1.98;81.13
23363;BME280;11853;48.080;11.960;2024-01-10T00:40:32;95398.75;;;-1.99;80.93
23363;BME280;11853;48.080;11.960;2024-01-10T00:42:58;95402.00;;;-1.94;80.66
23363;BME280;11853;48.080;11.960;2024-01-10T00:45:23;95395.94;;;-1.95;80.60
23363;BME280;11853;48.080;11.960;2024-01-10T00:47:49;95404.63;;;-1.94;81.11
23363;BME280;11853;48.080;11.960;2024-01-10T00:50:15;95401.00;;;-1.92;80.68
23363;BME280;11853;48.080;11.960;2024-01-10T00:52:42;95381.22;;;-1.94;80.65
23363;BME280;11853;48.080;11.960;2024-01-10T00:55:08;95399.28;;;-1.91;81.25
23363;BME280;11853;48.080;11.960;2024-01-10T00:57:33;95387.38;;;-1.97;81.19
23363;BME280;11853;48.080;11.960;2024-01-10T00:59:59;95388.16;;;-1.95;80.98
23363;BME280;11853;48.080;11.960;2024-01-10T01:02:25;95399.41;;;-1.94;80.45
23363;BME280;11853;48.080;11.960;2024-01-10T01:04:50;95391.75;;;-1.97;81.71
23363;BME280;11853;48.080;11.960;2024-01-10T01:07:16;95390.56;;;-1.90;81.29
23363;BME280;11853;48.080;11.960;2024-01-10T01:09:41;95398.50;;;-1.93;81.35
23363;BME280;11853;48.080;11.960;2024-01-10T01:12:07;95395.09;;;-1.95;81.29
23363;BME280;11853;48.080;11.960;2024-01-10T01:14:33;95402.66;;;-1.89;81.22
23363;BME280;11853;48.080;11.960;2024-01-10T01:16:58;95407.91;;;-1.91;80.71
23363;BME280;11853;48.080;11.960;2024-01-10T01:19:24;95414.09;;;-1.93;81.52
23363;BME280;11853;48.080;11.960;2024-01-10T01:21:50;95420.97;;;-1.92;81.22
23363;BME280;11853;48.080;11.960;2024-01-10T01:24:16;95416.56;;;-1.90;81.40
23363;BME280;11853;48.080;11.960;2024-01-10T01:26:42;95421.72;;;-1.89;81.38
23363;BME280;11853;48.080;11.960;2024-01-10T01:29:07;95439.81;;;-1.87;81.23
23363;BME280;11853;48.080;11.960;2024-01-10T01:31:34;95429.44;;;-1.87;80.80
23363;BME280;11853;48.080;11.960;2024-01-10T01:33:59;95424.22;;;-1.87;81.18
23363;BME280;11853;48.080;11.960;2024-01-10T01:36:25;95409.56;;;-1.88;81.31
23363;BME280;11853;48.080;11.960;2024-01-10T01:38:51;95417.22;;;-1.85;81.03
23363;BME280;11853;48.080;11.960;2024-01-10T01:41:16;95415.50;;;-1.86;81.31
23363;BME280;11853;48.080;11.960;2024-01-10T01:43:43;95406.75;;;-1.84;80.85
23363;BME280;11853;48.080;11.960;2024-01-10T01:46:10;95418.09;;;-1.86;81.60
23363;BME280;11853;48.080;11.960;2024-01-10T01:48:36;95411.31;;;-1.89;81.39
23363;BME280;11853;48.080;11.960;2024-01-10T01:51:04;95415.63;;;-1.89;81.66
23363;BME280;11853;48.080;11.960;2024-01-10T01:53:31;95409.69;;;-1.91;81.51
23363;BME280;11853;48.080;11.960;2024-01-10T01:56:00;95416.59;;;-1.92;81.51
23363;BME280;11853;48.080;11.960;2024-01-10T01:58:28;95422.69;;;-1.91;81.91
23363;BME280;11853;48.080;11.960;2024-01-10T02:00:55;95424.50;;;-1.93;81.96
23363;BME280;11853;48.080;11.960;2024-01-10T02:03:21;95421.03;;;-1.94;81.99
23363;BME280;11853;48.080;11.960;2024-01-10T02:05:47;95416.03;;;-1.98;82.28
23363;BME280;11853;48.080;11.960;2024-01-10T02:08:13;95417.59;;;-1.94;82.38
23363;BME280;11853;48.080;11.960;2024-01-10T02:10:39;95419.28;;;-1.93;82.33
23363;BME280;11853;48.080;11.960;2024-01-10T02:13:05;95422.69;;;-1.91;82.50
23363;BME280;11853;48.080;11.960;2024-01-10T02:15:35;95418.38;;;-1.92;82.10
23363;BME280;11853;48.080;11.960;2024-01-10T02:18:01;95422.47;;;-1.87;81.95
23363;BME280;11853;48.080;11.960;2024-01-10T02:20:26;95427.66;;;-1.87;82.08
23363;BME280;11853;48.080;11.960;2024-01-10T02:22:52;95419.03;;;-1.87;81.69
23363;BME280;11853;48.080;11.960;2024-01-10T02:25:18;95427.50;;;-1.82;81.42
23363;BME280;11853;48.080;11.960;2024-01-10T02:27:44;95429.31;;;-1.84;81.37
23363;BME280;11853;48.080;11.960;2024-01-10T02:30:10;95428.41;;;-1.83;81.61
23363;BME280;11853;48.080;11.960;2024-01-10T02:32:36;95436.09;;;-1.80;80.89
23363;BME280;11853;48.080;11.960;2024-01-10T02:35:03;95435.28;;;-1.82;81.44
23363;BME280;11853;48.080;11.960;2024-01-10T02:37:29;95427.50;;;-1.82;81.38
23363;BME280;11853;48.080;11.960;2024-01-10T02:39:54;95437.75;;;-1.79;80.55
23363;BME280;11853;48.080;11.960;2024-01-10T02:42:20;95434.38;;;-1.81;80.70
23363;BME280;11853;48.080;11.960;2024-01-10T02:44:45;95439.81;;;-1.87;80.84
23363;BME280;11853;48.080;11.960;2024-01-10T02:47:12;95439.91;;;-1.89;81.20
23363;BME280;11853;48.080;11.960;2024-01-10T02:49:38;95441.13;;;-1.97;81.33
23363;BME280;11853;48.080;11.960;2024-01-10T02:52:03;95429.81;;;-1.96;81.59
23363;BME280;11853;48.080;11.960;2024-01-10T02:54:29;95433.34;;;-1.97;81.59
23363;BME280;11853;48.080;11.960;2024-01-10T02:56:55;95432.22;;;-1.92;81.45
23363;BME280;11853;48.080;11.960;2024-01-10T02:59:20;95434.03;;;-1.94;80.94
23363;BME280;11853;48.080;11.960;2024-01-10T03:01:46;95428.84;;;-1.94;81.33
23363;BME280;11853;48.080;11.960;2024-01-10T03:04:12;95435.69;;;-1.91;80.98
23363;BME280;11853;48.080;11.960;2024-01-10T03:06:38;95426.25;;;-1.94;81.68
23363;BME280;11853;48.080;11.960;2024-01-10T03:09:03;95417.00;;;-2.01;81.73
23363;BME280;11853;48.080;11.960;2024-01-10T03:11:29;95419.53;;;-1.99;81.86
23363;BME280;11853;48.080;11.960;2024-01-10T03:14:09;95420.38;;;-1.99;81.32
23363;BME280;11853;48.080;11.960;2024-01-10T03:16:35;95422.84;;;-1.96;81.84
23363;BME280;11853;48.080;11.960;2024-01-10T03:19:01;95419.41;;;-1.96;81.75
23363;BME280;11853;48.080;11.960;2024-01-10T03:21:27;95420.09;;;-1.91;81.57
23363;BME280;11853;48.080;11.960;2024-01-10T03:23:55;95421.63;;;-1.87;80.79
23363;BME280;11853;48.080;11.960;2024-01-10T03:26:22;95413.97;;;-1.90;80.73
23363;BME280;11853;48.080;11.960;2024-01-10T03:28:48;95412.28;;;-1.91;79.83
23363;BME280;11853;48.080;11.960;2024-01-10T03:31:14;95414.94;;;-1.93;79.95
23363;BME280;11853;48.080;11.960;2024-01-10T03:33:40;95408.94;;;-1.95;80.05
23363;BME280;11853;48.080;11.960;2024-01-10T03:36:07;95420.13;;;-1.93;79.87
23363;BME280;11853;48.080;11.960;2024-01-10T03:38:32;95407.91;;;-1.91;80.31
23363;BME280;11853;48.080;11.960;2024-01-10T03:40:58;95402.84;;;-1.94;79.79
23363;BME280;11853;48.080;11.960;2024-01-10T03:43:23;95398.63;;;-1.96;80.07
23363;BME280;11853;48.080;11.960;2024-01-10T03:45:49;95407.38;;;-1.99;80.27
23363;BME280;11853;48.080;11.960;2024-01-10T03:48:15;95413.50;;;-2.00;79.83
23363;BME280;11853;48.080;11.960;2024-01-10T03:50:40;95403.81;;;-1.96;79.57
23363;BME280;11853;48.080;11.960;2024-01-10T03:53:06;95402.31;;;-2.02;79.94
23363;BME280;11853;48.080;11.960;2024-01-10T03:55:31;95398.13;;;-2.06;80.38
23363;BME280;11853;48.080;11.960;2024-01-10T03:57:57;95396.19;;;-2.01;80.01
23363;BME280;11853;48.080;11.960;2024-01-10T04:00:23;95409.16;;;-1.99;80.29
23363;BME280;11853;48.080;11.960;2024-01-10T04:02:50;95405.88;;;-2.05;80.45
23363;BME280;11853;48.080;11.960;2024-01-10T04:05:15;95401.59;;;-2.06;80.56
23363;BME280;11853;48.080;11.960;2024-01-10T04:07:41;95397.16;;;-2.04;80.65
23363;BME280;11853;48.080;11.960;2024-01-10T04:10:09;95398.88;;;-2.02;81.00
23363;BME280;11853;48.080;11.960;2024-01-10T04:12:39;95403.25;;;-2.03;81.04
23363;BME280;11853;48.080;11.960;2024-01-10T04:15:05;95398.03;;;-2.03;80.95
23363;BME280;11853;48.080;11.960;2024-01-10T04:17:30;95392.09;;;-2.07;80.73
23363;BME280;11853;48.080;11.960;2024-01-10T04:19:56;95397.31;;;-2.07;80.83
23363;BME280;11853;48.080;11.960;2024-01-10T04:22:23;95401.59;;;-2.06;80.80
23363;BME280;11853;48.080;11.960;2024-01-10T04:24:49;95407.69;;;-2.07;80.49
23363;BME280;11853;48.080;11.960;2024-01-10T04:27:15;95409.53;;;-2.09;81.25
23363;BME280;11853;48.080;11.960;2024-01-10T04:29:41;95408.75;;;-2.11;81.91
23363;BME280;11853;48.080;11.960;2024-01-10T04:32:06;95403.47;;;-2.09;81.37
23363;BME280;11853;48.080;11.960;2024-01-10T04:34:32;95402.50;;;-2.07;81.14
23363;BME280;11853;48.080;11.960;2024-01-10T04:36:58;95397.56;;;-2.13;81.19
23363;BME280;11853;48.080;11.960;2024-01-10T04:39:23;95400.94;;;-2.11;81.66
23363;BME280;11853;48.080;11.960;2024-01-10T04:41:49;95399.72;;;-2.02;80.74
23363;BME280;11853;48.080;11.960;2024-01-10T04:44:15;95396.28;;;-2.02;81.26
23363;BME280;11853;48.080;11.960;2024-01-10T04:46:41;95400.56;;;-2.01;80.81
23363;BME280;11853;48.080;11.960;2024-01-10T04:49:07;95396.41;;;-2.06;80.90
23363;BME280;11853;48.080;11.960;2024-01-10T04:51:33;95401.59;;;-2.06;80.95
23363;BME280;11853;48.080;11.960;2024-01-10T04:53:59;95403.34;;;-2.06;81.53
23363;BME280;11853;48.080;11.960;2024-01-10T04:56:25;95412.84;;;-2.05;81.52
23363;BME280;11853;48.080;11.960;2024-01-10T04:58:51;95401.88;;;-2.12;81.46
23363;BME280;11853;48.080;11.960;2024-01-10T05:01:17;95406.03;;;-2.08;81.38
23363;BME280;11853;48.080;11.960;2024-01-10T05:03:43;95399.44;;;-2.16;81.19
23363;BME280;11853;48.080;11.960;2024-01-10T05:06:09;95404.47;;;-2.12;81.25
23363;BME280;11853;48.080;11.960;2024-01-10T05:08:35;95397.44;;;-2.10;81.59
23363;BME280;11853;48.080;11.960;2024-01-10T05:11:01;95407.81;;;-2.10;81.86
23363;BME280;11853;48.080;11.960;2024-01-10T05:15:51;95405.19;;;-2.08;81.22
23363;BME280;11853;48.080;11.960;2024-01-10T05:18:18;95417.56;;;-2.15;81.77
23363;BME280;11853;48.080;11.960;2024-01-10T05:20:44;95409.66;;;-2.12;81.91
23363;BME280;11853;48.080;11.960;2024-01-10T05:23:10;95410.63;;;-2.14;81.58
23363;BME280;11853;48.080;11.960;2024-01-10T05:25:36;95414.25;;;-2.18;81.94
23363;BME280;11853;48.080;11.960;2024-01-10T05:28:02;95413.22;;;-2.14;82.17
23363;BME280;11853;48.080;11.960;2024-01-10T05:30:27;95425.47;;;-2.18;82.08
23363;BME280;11853;48.080;11.960;2024-01-10T05:32:53;95414.97;;;-2.15;81.87
23363;BME280;11853;48.080;11.960;2024-01-10T05:35:19;95420.28;;;-2.18;82.29
23363;BME280;11853;48.080;11.960;2024-01-10T05:37:45;95423.66;;;-2.16;82.02
23363;BME280;11853;48.080;11.960;2024-01-10T05:40:11;95422.88;;;-2.18;82.27
23363;BME280;11853;48.080;11.960;2024-01-10T05:42:36;95417.16;;;-2.26;82.49
23363;BME280;11853;48.080;11.960;2024-01-10T05:45:04;95427.47;;;-2.24;82.49
23363;BME280;11853;48.080;11.960;2024-01-10T05:47:30;95433.53;;;-2.24;82.81
23363;BME280;11853;48.080;11.960;2024-01-10T05:49:55;95430.78;;;-2.21;82.71
23363;BME280;11853;48.080;11.960;2024-01-10T05:52:21;95437.59;;;-2.17;83.04
23363;BME280;11853;48.080;11.960;2024-01-10T05:54:50;95430.53;;;-2.15;82.83
23363;BME280;11853;48.080;11.960;2024-01-10T05:57:15;95436.78;;;-2.19;82.60
23363;BME280;11853;48.080;11.960;2024-01-10T05:59:41;95437.63;;;-2.18;82.88
23363;BME280;11853;48.080;11.960;2024-01-10T06:02:07;95432.97;;;-2.10;82.69
23363;BME280;11853;48.080;11.960;2024-01-10T06:04:32;95436.78;;;-2.19;83.03
23363;BME280;11853;48.080;11.960;2024-01-10T06:06:58;95437.44;;;-2.14;82.27
23363;BME280;11853;48.080;11.960;2024-01-10T06:09:24;95428.88;;;-2.16;82.46
23363;BME280;11853;48.080;11.960;2024-01-10T06:11:50;95435.66;;;-2.12;82.68
23363;BME280;11853;48.080;11.960;2024-01-10T06:14:16;95437.44;;;-2.14;82.22
23363;BME280;11853;48.080;11.960;2024-01-10T06:16:42;95435.09;;;-2.20;82.03
23363;BME280;11853;48.080;11.960;2024-01-10T06:19:07;95443.03;;;-2.23;82.62
23363;BME280;11853;48.080;11.960;2024-01-10T06:21:33;95438.66;;;-2.22;82.48
23363;BME280;11853;48.080;11.960;2024-01-10T06:23:59;95432.63;;;-2.23;82.88
23363;BME280;11853;48.080;11.960;2024-01-10T06:26:24;95437.88;;;-2.24;82.81
23363;BME280;11853;48.080;11.960;2024-01-10T06:28:50;95442.16;;;-2.23;82.67
23363;BME280;11853;48.080;11.960;2024-01-10T06:31:16;95439.50;;;-2.22;83.24
23363;BME280;11853;48.080;11.960;2024-01-10T06:33:41;95439.50;;;-2.22;83.08
23363;BME280;11853;48.080;11.960;2024-01-10T06:36:07;95432.50;;;-2.20;82.88
23363;BME280;11853;48.080;11.960;2024-01-10T06:38:33;95435.16;;;-2.21;82.69
23363;BME280;11853;48.080;11.960;2024-01-10T06:40:58;95429.28;;;-2.27;82.42
23363;BME280;11853;48.080;11.960;2024-01-10T06:43:24;95422.28;;;-2.24;82.62
23363;BME280;11853;48.080;11.960;2024-01-10T06:45:50;95431.84;;;-2.25;82.97
23363;BME280;11853;48.080;11.960;2024-01-10T06:48:15;95436.91;;;-2.22;82.44
23363;BME280;11853;48.080;11.960;2024-01-10T06:50:41;95439.50;;;-2.22;82.45
23363;BME280;11853;48.080;11.960;2024-01-10T06:53:07;95429.16;;;-2.23;83.18
23363;BME280;11853;48.080;11.960;2024-01-10T06:55:33;95427.34;;;-2.21;83.25
23363;BME280;11853;48.080;11.960;2024-01-10T06:57:59;95432.69;;;-2.24;83.51
23363;BME280;11853;48.080;11.960;2024-01-10T07:00:24;95441.31;;;-2.24;83.07
23363;BME280;11853;48.080;11.960;2024-01-10T07:02:50;95438.66;;;-2.22;82.70
23363;BME280;11853;48.080;11.960;2024-01-10T07:05:17;95447.31;;;-2.22;83.04
23363;BME280;11853;48.080;11.960;2024-01-10T07:07:42;95448.97;;;-2.21;82.85
23363;BME280;11853;48.080;11.960;2024-01-10T07:10:09;95442.16;;;-2.23;83.49
23363;BME280;11853;48.080;11.960;2024-01-10T07:15:41;95465.84;;;-2.09;84.90
23363;BME280;11853;48.080;11.960;2024-01-10T07:18:10;95465.91;;;-1.89;86.93
23363;BME280;11853;48.080;11.960;2024-01-10T07:20:36;95466.94;;;-1.72;86.60
23363;BME280;11853;48.080;11.960;2024-01-10T07:23:12;95463.72;;;-1.57;85.08
23363;BME280;11853;48.080;11.960;2024-01-10T07:26:00;95474.72;;;-1.50;83.89
23363;BME280;11853;48.080;11.960;2024-01-10T07:28:29;95471.72;;;-1.62;83.37
23363;BME280;11853;48.080;11.960;2024-01-10T07:30:56;95462.59;;;-1.72;83.16
23363;BME280;11853;48.080;11.960;2024-01-10T07:36:07;95462.44;;;-1.89;84.30
23363;BME280;11853;48.080;11.960;2024-01-10T07:38:32;95467.75;;;-1.92;84.20
23363;BME280;11853;48.080;11.960;2024-01-10T07:40:59;95468.81;;;-1.96;84.91
23363;BME280;11853;48.080;11.960;2024-01-10T07:43:45;95461.13;;;-1.99;85.03
23363;BME280;11853;48.080;11.960;2024-01-10T07:49:07;95482.06;;;-2.02;84.97
23363;BME280;11853;48.080;11.960;2024-01-10T07:51:33;95483.72;;;-2.01;84.80
23363;BME280;11853;48.080;11.960;2024-01-10T07:54:14;95492.25;;;-1.98;84.73
23363;BME280;11853;48.080;11.960;2024-01-10T07:56:42;95500.00;;;-1.96;85.49
23363;BME280;11853;48.080;11.960;2024-01-10T07:59:08;95489.84;;;-2.02;85.38
23363;BME280;11853;48.080;11.960;2024-01-10T08:01:33;95490.72;;;-2.04;85.97
23363;BME280;11853;48.080;11.960;2024-01-10T08:03:59;95491.53;;;-2.01;85.75
23363;BME280;11853;48.080;11.960;2024-01-10T08:06:43;95500.91;;;-1.97;85.86
23363;BME280;11853;48.080;11.960;2024-01-10T08:09:32;95504.09;;;-1.91;86.41
23363;BME280;11853;48.080;11.960;2024-01-10T08:11:58;95508.34;;;-1.88;85.83
23363;BME280;11853;48.080;11.960;2024-01-10T08:14:23;95501.44;;;-1.89;86.19
23363;BME280;11853;48.080;11.960;2024-01-10T08:16:49;95510.03;;;-1.87;86.29
23363;BME280;11853;48.080;11.960;2024-01-10T08:19:21;95518.47;;;-1.82;85.93
23363;BME280;11853;48.080;11.960;2024-01-10T08:25:02;95509.63;;;-1.78;85.87
23363;BME280;11853;48.080;11.960;2024-01-10T08:27:41;95512.91;;;-1.73;86.00
23363;BME280;11853;48.080;11.960;2024-01-10T08:30:07;95509.47;;;-1.73;85.62
23363;BME280;11853;48.080;11.960;2024-01-10T08:32:35;95512.88;;;-1.71;85.44
23363;BME280;11853;48.080;11.960;2024-01-10T08:35:05;95515.38;;;-1.70;86.07
23363;BME280;11853;48.080;11.960;2024-01-10T08:37:32;95514.50;;;-1.69;85.69
23363;BME280;11853;48.080;11.960;2024-01-10T08:39:58;95513.56;;;-1.68;85.36
23363;BME280;11853;48.080;11.960;2024-01-10T08:42:25;95506.69;;;-1.69;86.28
23363;BME280;11853;48.080;11.960;2024-01-10T08:44:51;95515.25;;;-1.67;86.46
23363;BME280;11853;48.080;11.960;2024-01-10T08:47:17;95512.47;;;-1.62;85.87
23363;BME280;11853;48.080;11.960;2024-01-10T08:49:42;95507.28;;;-1.62;85.97
23363;BME280;11853;48.080;11.960;2024-01-10T08:52:08;95521.13;;;-1.62;85.72
23363;BME280;11853;48.080;11.960;2024-01-10T08:54:34;95517.56;;;-1.59;85.49
23363;BME280;11853;48.080;11.960;2024-01-10T08:56:59;95518.41;;;-1.59;85.77
23363;BME280;11853;48.080;11.960;2024-01-10T08:59:26;95509.78;;;-1.61;85.81
23363;BME280;11853;48.080;11.960;2024-01-10T09:01:53;95517.59;;;-1.61;85.12
23363;BME280;11853;48.080;11.960;2024-01-10T09:04:19;95515.97;;;-1.63;85.70
23363;BME280;11853;48.080;11.960;2024-01-10T09:06:45;95520.31;;;-1.64;85.52
23363;BME280;11853;48.080;11.960;2024-01-10T09:09:14;95524.56;;;-1.61;85.76
23363;BME280;11853;48.080;11.960;2024-01-10T09:11:40;95520.19;;;-1.61;86.55
23363;BME280;11853;48.080;11.960;2024-01-10T09:14:06;95535.03;;;-1.63;86.58
23363;BME280;11853;48.080;11.960;2024-01-10T09:16:32;95536.69;;;-1.60;86.62
23363;BME280;11853;48.080;11.960;2024-01-10T09:18:58;95528.78;;;-1.59;86.49
23363;BME280;11853;48.080;11.960;2024-01-10T09:21:25;95530.38;;;-1.54;86.38
23363;BME280;11853;48.080;11.960;2024-01-10T09:23:52;95534.59;;;-1.52;86.54
23363;BME280;11853;48.080;11.960;2024-01-10T09:26:21;95532.78;;;-1.50;86.58
23363;BME280;11853;48.080;11.960;2024-01-10T09:28:47;95531.84;;;-1.49;86.31
23363;BME280;11853;48.080;11.960;2024-01-10T09:31:13;95534.41;;;-1.47;86.13
23363;BME280;11853;48.080;11.960;2024-01-10T09:33:40;95530.66;;;-1.40;86.41
23363;BME280;11853;48.080;11.960;2024-01-10T09:36:06;95532.34;;;-1.39;86.29
23363;BME280;11853;48.080;11.960;2024-01-10T09:38:35;95536.63;;;-1.38;86.36
23363;BME280;11853;48.080;11.960;2024-01-10T09:41:03;95536.50;;;-1.35;86.60
23363;BME280;11853;48.080;11.960;2024-01-10T09:43:31;95544.97;;;-1.30;86.31
23363;BME280;11853;48.080;11.960;2024-01-10T09:46:00;95537.09;;;-1.28;86.10
23363;BME280;11853;48.080;11.960;2024-01-10T09:48:26;95543.06;;;-1.26;86.38
23363;BME280;11853;48.080;11.960;2024-01-10T09:50:52;95546.53;;;-1.26;86.65
23363;BME280;11853;48.080;11.960;2024-01-10T09:53:23;95540.34;;;-1.23;86.39
23363;BME280;11853;48.080;11.960;2024-01-10T09:55:51;95536.13;;;-1.26;86.73
23363;BME280;11853;48.080;11.960;2024-01-10T09:58:18;95530.13;;;-1.28;86.71
23363;BME280;11853;48.080;11.960;2024-01-10T10:00:44;95536.97;;;-1.25;87.20
23363;BME280;11853;48.080;11.960;2024-01-10T10:03:10;95537.94;;;-1.28;86.96
23363;BME280;11853;48.080;11.960;2024-01-10T10:05:40;95536.13;;;-1.26;87.23
23363;BME280;11853;48.080;11.960;2024-01-10T10:08:09;95524.94;;;-1.28;87.52
23363;BME280;11853;48.080;11.960;2024-01-10T10:10:35;95534.28;;;-1.24;87.14
23363;BME280;11853;48.080;11.960;2024-01-10T10:13:01;95531.63;;;-1.22;86.49
23363;BME280;11853;48.080;11.960;2024-01-10T10:15:28;95525.50;;;-1.21;87.86
23363;BME280;11853;48.080;11.960;2024-01-10T10:17:54;95531.38;;;-1.16;87.42
23363;BME280;11853;48.080;11.960;2024-01-10T10:20:24;95525.47;;;-1.20;87.19
23363;BME280;11853;48.080;11.960;2024-01-10T10:23:08;95516.47;;;-1.13;87.68
23363;BME280;11853;48.080;11.960;2024-01-10T10:25:43;95523.25;;;-1.08;87.85
23363;BME280;11853;48.080;11.960;2024-01-10T10:28:09;95521.41;;;-1.06;88.35
23363;BME280;11853;48.080;11.960;2024-01-10T10:30:34;95523.09;;;-1.05;87.79
23363;BME280;11853;48.080;11.960;2024-01-10T10:33:02;95525.44;;;-0.99;87.49
23363;BME280;11853;48.080;11.960;2024-01-10T10:35:27;95522.00;;;-1.00;87.69
23363;BME280;11853;48.080;11.960;2024-01-10T10:37:53;95522.72;;;-0.96;88.40
23363;BME280;11853;48.080;11.960;2024-01-10T10:40:21;95519.19;;;-0.95;88.27
23363;BME280;11853;48.080;11.960;2024-01-10T10:42:49;95519.00;;;-0.91;87.17
23363;BME280;11853;48.080;11.960;2024-01-10T10:45:19;95529.19;;;-0.86;87.80
23363;BME280;11853;48.080;11.960;2024-01-10T10:47:50;95521.50;;;-0.89;88.03
23363;BME280;11853;48.080;11.960;2024-01-10T10:50:22;95524.75;;;-0.84;87.52
23363;BME280;11853;48.080;11.960;2024-01-10T10:52:49;95529.91;;;-0.82;87.83
23363;BME280;11853;48.080;11.960;2024-01-10T10:55:16;95527.88;;;-0.76;87.97
23363;BME280;11853;48.080;11.960;2024-01-10T10:57:47;95532.13;;;-0.73;87.73
23363;BME280;11853;48.080;11.960;2024-01-10T11:00:21;95527.09;;;-0.78;87.76
23363;BME280;11853;48.080;11.960;2024-01-10T11:02:56;95518.25;;;-0.74;88.18
23363;BME280;11853;48.080;11.960;2024-01-10T11:05:23;95530.22;;;-0.70;88.26
23363;BME280;11853;48.080;11.960;2024-01-10T11:07:50;95522.22;;;-0.65;87.55
23363;BME280;11853;48.080;11.960;2024-01-10T11:10:34;95519.22;;;-0.57;87.94
23363;BME280;11853;48.080;11.960;2024-01-10T11:13:45;95512.06;;;-0.52;87.72
23363;BME280;11853;48.080;11.960;2024-01-10T11:23:59;95517.34;;;-0.35;87.17
23363;BME280;11853;48.080;11.960;2024-01-10T11:26:26;95520.75;;;-0.33;87.10
23363;BME280;11853;48.080;11.960;2024-01-10T11:28:52;95528.41;;;-0.30;87.28
23363;BME280;11853;48.080;11.960;2024-01-10T11:31:29;95518.00;;;-0.30;87.83
23363;BME280;11853;48.080;11.960;2024-01-10T11:34:00;95517.84;;;-0.27;87.22
23363;BME280;11853;48.080;11.960;2024-01-10T11:36:26;95517.84;;;-0.27;86.75
23363;BME280;11853;48.080;11.960;2024-01-10T11:39:23;95524.78;;;-0.26;86.79
23363;BME280;11853;48.080;11.960;2024-01-10T11:42:22;95522.22;;;-0.27;86.79
23363;BME280;11853;48.080;11.960;2024-01-10T11:44:49;95521.25;;;-0.25;86.48
23363;BME280;11853;48.080;11.960;2024-01-10T11:47:15;95515.25;;;-0.27;86.88
23363;BME280;11853;48.080;11.960;2024-01-10T11:49:53;95515.09;;;-0.24;86.63
23363;BME280;11853;48.080;11.960;2024-01-10T11:52:21;95514.19;;;-0.22;86.52
23363;BME280;11853;48.080;11.960;2024-01-10T11:54:48;95516.66;;;-0.19;86.48
23363;BME280;11853;48.080;11.960;2024-01-10T11:57:21;95503.63;;;-0.19;86.86
23363;BME280;11853;48.080;11.960;2024-01-10T11:59:51;95508.00;;;-0.20;86.70
23363;BME280;11853;48.080;11.960;2024-01-10T12:02:17;95519.97;;;-0.16;86.15
23363;BME280;11853;48.080;11.960;2024-01-10T12:04:44;95523.50;;;-0.17;86.57
23363;BME280;11853;48.080;11.960;2024-01-10T12:07:11;95519.13;;;-0.16;86.09
23363;BME280;11853;48.080;11.960;2024-01-10T12:09:37;95514.94;;;-0.20;85.72
23363;BME280;11853;48.080;11.960;2024-01-10T12:12:03;95519.19;;;-0.18;86.22
23363;BME280;11853;48.080;11.960;2024-01-10T12:14:29;95526.03;;;-0.15;86.53
23363;BME280;11853;48.080;11.960;2024-01-10T12:16:59;95521.72;;;-0.16;86.03
23363;BME280;11853;48.080;11.960;2024-01-10T12:19:25;95514.81;;;-0.17;86.26
23363;BME280;11853;48.080;11.960;2024-01-10T12:21:51;95512.19;;;-0.17;86.69
23363;BME280;11853;48.080;11.960;2024-01-10T12:24:18;95508.56;;;-0.13;86.78
23363;BME280;11853;48.080;11.960;2024-01-10T12:26:48;95513.06;;;-0.17;85.99
23363;BME280;11853;48.080;11.960;2024-01-10T12:29:17;95507.72;;;-0.14;86.25
23363;BME280;11853;48.080;11.960;2024-01-10T12:31:43;95501.63;;;-0.14;86.08
23363;BME280;11853;48.080;11.960;2024-01-10T12:34:10;95499.09;;;-0.16;86.39
23363;BME280;11853;48.080;11.960;2024-01-10T12:36:36;95501.78;;;-0.17;86.32
23363;BME280;11853;48.080;11.960;2024-01-10T12:39:03;95497.34;;;-0.15;85.89
23363;BME280;11853;48.080;11.960;2024-01-10T12:41:32;95501.78;;;-0.17;86.57
23363;BME280;11853;48.080;11.960;2024-01-10T12:43:59;95510.22;;;-0.12;86.26
23363;BME280;11853;48.080;11.960;2024-01-10T12:46:28;95504.19;;;-0.13;86.84
23363;BME280;11853;48.080;11.960;2024-01-10T12:49:04;95497.88;;;-0.09;87.18
23363;BME280;11853;48.080;11.960;2024-01-10T12:51:31;95498.75;;;-0.08;86.98
23363;BME280;11853;48.080;11.960;2024-01-10T12:53:58;95501.38;;;-0.08;86.82
23363;BME280;11853;48.080;11.960;2024-01-10T12:56:26;95495.06;;;-0.04;86.84
23363;BME280;11853;48.080;11.960;2024-01-10T12:58:51;95493.31;;;-0.04;87.11
23363;BME280;11853;48.080;11.960;2024-01-10T13:01:17;95489.94;;;-0.06;86.67
23363;BME280;11853;48.080;11.960;2024-01-10T13:03:43;95496.00;;;-0.05;87.14
23363;BME280;11853;48.080;11.960;2024-01-10T13:06:09;95501.06;;;-0.02;86.15
23363;BME280;11853;48.080;11.960;2024-01-10T13:08:36;95494.16;;;-0.03;87.14
23363;BME280;11853;48.080;11.960;2024-01-10T13:11:02;95495.91;;;-0.04;87.14
23363;BME280;11853;48.080;11.960;2024-01-10T13:13:33;95495.72;;;0.01;86.96